createdAt,value
2022-10-16T00:01:04.177Z,102013.63
2022-10-16T00:04:12.268Z,102013.21
2022-10-16T00:07:18.127Z,102018.62
2022-10-16T00:10:24.920Z,102010.91
2022-10-16T00:13:30.182Z,102013.71
2022-10-16T00:16:36.364Z,102004.66
2022-10-16T00:19:42.310Z,102012.24
2022-10-16T00:22:49.755Z,102012.75
2022-10-16T00:25:57.071Z,102010.04
2022-10-16T00:29:06.618Z,102018.71
2022-10-16T00:32:11.531Z,102016.19
2022-10-16T00:35:17.438Z,102015.12
2022-10-16T00:38:23.793Z,102016.48
2022-10-16T00:41:31.990Z,102014.19
2022-10-16T00:45:05.462Z,102018.71
2022-10-16T00:48:12.325Z,102015.72
2022-10-16T00:51:17.651Z,102024.85
2022-10-16T00:54:33.500Z,102022.95
2022-10-16T00:57:38.646Z,102032.79
2022-10-16T01:00:45.608Z,102026.45
2022-10-16T01:03:52.836Z,102035.73
2022-10-16T01:07:02.522Z,102032.05
2022-10-16T01:10:19.316Z,102039.97
2022-10-16T01:13:43.639Z,102029.29
2022-10-16T01:17:01.384Z,102030.73
2022-10-16T01:20:17.734Z,102036.48
2022-10-16T01:23:43.128Z,102034.34
2022-10-16T01:27:26.022Z,102037.09
2022-10-16T01:30:40.571Z,102040.52
2022-10-16T01:34:03.160Z,102040.41
2022-10-16T01:37:14.005Z,102049.53
2022-10-16T01:40:26.955Z,102053.83
2022-10-16T01:43:55.110Z,102058.98
2022-10-16T01:47:03.801Z,102059.36
2022-10-16T01:50:08.740Z,102048.72
2022-10-16T01:53:14.313Z,102057.64
2022-10-16T01:56:23.704Z,102061.64
2022-10-16T01:59:32.375Z,102062.28
2022-10-16T02:02:38.446Z,102068.88
2022-10-16T02:06:01.176Z,102065.28
2022-10-16T02:09:07.842Z,102069.97
2022-10-16T02:12:14.416Z,102068.49
2022-10-16T02:15:20.550Z,102068.16
2022-10-16T02:18:26.970Z,102069.76
2022-10-16T02:21:42.121Z,102072.62
2022-10-16T02:24:54.393Z,102068.19
2022-10-16T02:28:11.626Z,102070.64
2022-10-16T02:31:21.541Z,102070.48
2022-10-16T02:34:26.463Z,102077.40
2022-10-16T02:37:31.701Z,102076.81
2022-10-16T02:40:37.970Z,102076.34
2022-10-16T02:43:45.016Z,102084.66
2022-10-16T02:46:51.448Z,102082.77
2022-10-16T02:49:57.396Z,102083.09
2022-10-16T02:53:03.593Z,102092.55
2022-10-16T02:56:08.729Z,102097.38
2022-10-16T02:59:14.850Z,102089.86
2022-10-16T03:02:20.863Z,102093.48
2022-10-16T03:05:27.262Z,102102.48
2022-10-16T03:08:32.890Z,102104.88
2022-10-16T03:11:38.939Z,102101.37
2022-10-16T03:14:44.678Z,102111.77
2022-10-16T03:17:50.582Z,102112.82
2022-10-16T03:20:57.919Z,102123.88
2022-10-16T03:24:05.014Z,102123.88
2022-10-16T03:27:12.258Z,102126.27
2022-10-16T03:30:18.256Z,102123.56
2022-10-16T03:33:25.172Z,102116.89
2022-10-16T03:36:30.487Z,102114.98
2022-10-16T03:39:37.535Z,102114.34
2022-10-16T03:42:43.600Z,102112.36
2022-10-16T03:45:48.861Z,102118.18
2022-10-16T03:48:55.684Z,102120.95
2022-10-16T03:52:01.792Z,102126.28
2022-10-16T03:55:07.921Z,102122.70
2022-10-16T03:58:13.469Z,102124.42
2022-10-16T04:01:20.469Z,102140.00
2022-10-16T04:04:25.772Z,102140.39
2022-10-16T04:07:31.627Z,102144.86
2022-10-16T04:10:38.405Z,102150.10
2022-10-16T04:13:45.092Z,102141.66
2022-10-16T04:16:51.730Z,102148.50
2022-10-16T04:19:57.399Z,102145.41
2022-10-16T04:23:03.567Z,102152.47
2022-10-16T04:26:10.359Z,102158.59
2022-10-16T04:29:18.307Z,102161.15
2022-10-16T04:32:25.376Z,102157.32
2022-10-16T04:35:32.990Z,102163.27
2022-10-16T04:38:38.924Z,102172.18
2022-10-16T04:41:46.034Z,102168.14
2022-10-16T04:44:52.942Z,102169.17
2022-10-16T04:47:59.040Z,102160.44
2022-10-16T04:51:05.800Z,102175.13
2022-10-16T04:54:12.230Z,102172.35
2022-10-16T04:57:18.148Z,102180.77
2022-10-16T05:00:25.087Z,102184.52
2022-10-16T05:06:37.618Z,102185.84
2022-10-16T05:09:44.682Z,102187.67
2022-10-16T05:12:50.788Z,102193.00
2022-10-16T05:16:00.935Z,102195.12
2022-10-16T05:19:28.014Z,102201.96
2022-10-16T05:22:17.505Z,102205.59
2022-10-16T05:25:25.119Z,102202.00
2022-10-16T05:28:32.083Z,102216.37
2022-10-16T05:31:40.077Z,102219.45
2022-10-16T05:34:45.926Z,102213.61
2022-10-16T05:37:54.540Z,102226.23
2022-10-16T05:41:03.401Z,102231.34
2022-10-16T05:44:08.605Z,102241.64
2022-10-16T05:47:16.102Z,102233.97
2022-10-16T05:50:23.431Z,102232.50
2022-10-16T05:53:31.033Z,102242.33
2022-10-16T05:56:37.586Z,102243.23
2022-10-16T05:59:45.191Z,102248.69
2022-10-16T06:02:51.486Z,102252.15
2022-10-16T06:05:56.675Z,102248.98
2022-10-16T06:09:03.423Z,102257.73
2022-10-16T06:12:10.217Z,102261.25
2022-10-16T06:15:16.580Z,102257.75
2022-10-16T06:18:22.902Z,102259.34
2022-10-16T06:21:35.790Z,102265.75
2022-10-16T06:24:44.112Z,102259.52
2022-10-16T06:27:49.801Z,102262.92
2022-10-16T06:30:56.402Z,102266.41
2022-10-16T06:34:08.303Z,102261.61
2022-10-16T06:37:14.813Z,102263.55
2022-10-16T06:40:24.005Z,102266.88
2022-10-16T06:43:32.435Z,102268.70
2022-10-16T06:46:40.405Z,102261.25
2022-10-16T06:49:51.832Z,102266.27
2022-10-16T06:52:56.661Z,102261.89
2022-10-16T06:56:03.460Z,102261.63
2022-10-16T06:59:11.290Z,102259.92
2022-10-16T07:02:17.990Z,102259.61
2022-10-16T07:05:25.425Z,102252.86
2022-10-16T07:08:32.687Z,102253.41
2022-10-16T07:11:40.147Z,102253.83
2022-10-16T07:14:47.979Z,102254.74
2022-10-16T07:17:54.994Z,102260.80
2022-10-16T07:21:03.611Z,102257.25
2022-10-16T07:24:15.044Z,102254.65
2022-10-16T07:27:23.477Z,102250.16
2022-10-16T07:30:30.486Z,102252.16
2022-10-16T07:33:37.533Z,102253.22
2022-10-16T07:36:47.111Z,102258.41
2022-10-16T07:39:53.929Z,102259.86
2022-10-16T07:43:02.281Z,102265.05
2022-10-16T07:46:09.121Z,102262.05
2022-10-16T07:49:15.135Z,102269.91
2022-10-16T07:52:21.485Z,102258.72
2022-10-16T07:55:30.084Z,102270.70
2022-10-16T07:58:37.116Z,102265.80
2022-10-16T08:01:43.594Z,102263.62
2022-10-16T08:04:50.253Z,102255.16
2022-10-16T08:07:57.613Z,102261.56
2022-10-16T08:11:03.493Z,102253.91
2022-10-16T08:14:10.788Z,102253.19
2022-10-16T08:17:18.292Z,102250.51
2022-10-16T08:20:26.719Z,102246.69
2022-10-16T08:23:33.535Z,102242.87
2022-10-16T08:26:41.277Z,102235.34
2022-10-16T08:29:47.918Z,102243.29
2022-10-16T08:32:55.158Z,102243.19
2022-10-16T08:36:09.160Z,102247.03
2022-10-16T08:39:18.075Z,102241.47
2022-10-16T08:42:37.334Z,102244.95
2022-10-16T08:46:12.936Z,102250.42
2022-10-16T08:49:22.643Z,102251.04
2022-10-16T08:52:29.623Z,102251.81
2022-10-16T08:56:07.751Z,102257.89
2022-10-16T08:59:14.675Z,102256.02
2022-10-16T09:02:39.588Z,102255.51
2022-10-16T09:06:30.232Z,102260.50
2022-10-16T09:10:03.444Z,102258.50
2022-10-16T09:13:23.976Z,102253.52
2022-10-16T09:16:50.426Z,102251.77
2022-10-16T09:20:04.278Z,102243.80
2022-10-16T09:23:50.113Z,102240.89
2022-10-16T09:26:56.406Z,102236.30
2022-10-16T09:30:03.019Z,102238.86
2022-10-16T09:33:10.938Z,102235.59
2022-10-16T09:36:20.547Z,102240.31
2022-10-16T09:39:27.275Z,102242.12
2022-10-16T09:42:47.314Z,102242.55
2022-10-16T09:45:53.576Z,102243.86
2022-10-16T09:49:03.719Z,102234.24
2022-10-16T09:52:21.107Z,102232.90
2022-10-16T09:55:34.750Z,102226.37
2022-10-16T09:58:41.333Z,102221.97
2022-10-16T10:02:00.941Z,102221.67
2022-10-16T10:05:09.159Z,102225.83
2022-10-16T10:08:17.545Z,102231.86
2022-10-16T10:11:23.384Z,102213.36
2022-10-16T10:14:54.799Z,102210.52
2022-10-16T10:18:04.620Z,102200.94
2022-10-16T10:21:18.231Z,102194.20
2022-10-16T10:24:30.615Z,102200.06
2022-10-16T10:27:37.430Z,102201.95
2022-10-16T10:31:07.420Z,102205.39
2022-10-16T10:34:56.837Z,102201.78
2022-10-16T10:38:39.033Z,102195.13
2022-10-16T10:42:10.208Z,102195.21
2022-10-16T10:45:42.942Z,102191.94
2022-10-16T10:49:10.321Z,102183.91
2022-10-16T10:52:40.508Z,102176.88
2022-10-16T10:56:00.319Z,102176.81
2022-10-16T10:59:37.690Z,102175.06
2022-10-16T11:03:04.633Z,102179.74
2022-10-16T11:06:38.265Z,102170.58
2022-10-16T11:09:54.983Z,102169.83
2022-10-16T11:13:08.334Z,102161.34
2022-10-16T11:16:23.935Z,102159.01
2022-10-16T11:19:41.607Z,102160.19
2022-10-16T11:23:09.555Z,102151.07
2022-10-16T11:26:22.295Z,102144.66
2022-10-16T11:29:42.537Z,102146.14
2022-10-16T11:33:11.061Z,102140.38
2022-10-16T11:36:46.285Z,102141.38
2022-10-16T11:39:51.527Z,102132.25
2022-10-16T11:43:03.506Z,102131.14
2022-10-16T11:46:14.673Z,102137.60
2022-10-16T11:49:38.275Z,102125.78
2022-10-16T11:52:55.188Z,102127.25
2022-10-16T11:56:01.336Z,102143.52
2022-10-16T11:59:21.442Z,102139.78
2022-10-16T12:02:50.408Z,102135.71
2022-10-16T12:06:25.596Z,102130.03
2022-10-16T12:09:39.549Z,102133.50
2022-10-16T12:12:54.664Z,102134.16
2022-10-16T12:16:00.200Z,102140.89
2022-10-16T12:19:18.203Z,102145.73
2022-10-16T12:22:30.856Z,102141.95
2022-10-16T12:25:47.705Z,102133.89
2022-10-16T12:28:57.072Z,102133.23
2022-10-16T12:32:03.029Z,102132.56
2022-10-16T12:35:10.285Z,102127.77
2022-10-16T12:38:35.219Z,102122.09
2022-10-16T12:41:48.306Z,102116.90
2022-10-16T12:44:52.361Z,102121.75
2022-10-16T12:48:08.268Z,102126.07
2022-10-16T12:51:35.170Z,102134.23
2022-10-16T12:54:54.597Z,102133.73
2022-10-16T12:58:19.931Z,102133.19
2022-10-16T13:01:43.454Z,102139.41
2022-10-16T13:05:09.431Z,102135.94
2022-10-16T13:08:36.961Z,102145.43
2022-10-16T13:12:06.308Z,102141.50
2022-10-16T13:15:43.153Z,102139.41
2022-10-16T13:19:01.523Z,102141.30
2022-10-16T13:22:20.390Z,102150.45
2022-10-16T13:25:49.016Z,102151.16
2022-10-16T13:28:56.192Z,102157.02
2022-10-16T13:32:03.497Z,102156.52
2022-10-16T13:35:08.733Z,102155.27
2022-10-16T13:38:35.909Z,102161.10
2022-10-16T13:41:44.407Z,102161.38
2022-10-16T13:44:58.918Z,102169.65
2022-10-16T13:48:06.091Z,102174.11
2022-10-16T13:51:31.719Z,102171.97
2022-10-16T13:54:38.329Z,102169.52
2022-10-16T13:57:44.153Z,102163.59
2022-10-16T14:00:50.393Z,102168.83
2022-10-16T14:03:58.242Z,102175.31
2022-10-16T14:07:06.239Z,102183.16
2022-10-16T14:10:15.748Z,102187.71
2022-10-16T14:13:22.792Z,102193.27
2022-10-16T14:16:43.527Z,102192.42
2022-10-16T14:19:52.988Z,102191.77
2022-10-16T14:22:53.365Z,102190.42
2022-10-16T14:26:00.090Z,102189.19
2022-10-16T14:29:18.617Z,102180.94
2022-10-16T14:32:32.617Z,102194.09
2022-10-16T14:35:51.445Z,102196.22
2022-10-16T14:39:04.469Z,102186.27
2022-10-16T14:42:13.163Z,102179.49
2022-10-16T14:45:24.703Z,102165.98
2022-10-16T14:48:33.091Z,102169.55
2022-10-16T14:51:39.392Z,102168.06
2022-10-16T14:54:44.743Z,102170.78
2022-10-16T14:57:50.057Z,102176.60
2022-10-16T15:00:56.931Z,102176.61
2022-10-16T15:04:03.764Z,102178.22
2022-10-16T15:07:10.693Z,102174.02
2022-10-16T15:10:17.663Z,102175.53
2022-10-16T15:13:27.823Z,102171.66
2022-10-16T15:16:33.310Z,102181.84
2022-10-16T15:19:42.367Z,102181.42
2022-10-16T15:22:47.859Z,102188.34
2022-10-16T15:26:03.023Z,102195.14
2022-10-16T15:29:10.334Z,102200.39
2022-10-16T15:32:17.168Z,102211.72
2022-10-16T15:35:25.234Z,102207.91
2022-10-16T15:38:31.815Z,102210.78
2022-10-16T15:41:38.311Z,102208.44
2022-10-16T15:44:44.592Z,102225.33
2022-10-16T15:47:45.750Z,102226.21
2022-10-16T15:50:52.028Z,102224.06
2022-10-16T15:54:00.183Z,102228.16
2022-10-16T15:57:06.631Z,102235.09
2022-10-16T16:00:15.248Z,102231.85
2022-10-16T16:03:24.921Z,102240.86
2022-10-16T16:06:33.629Z,102251.75
2022-10-16T16:09:40.482Z,102262.03
2022-10-16T16:12:46.937Z,102264.71
2022-10-16T16:15:56.892Z,102267.02
2022-10-16T16:19:06.528Z,102274.27
2022-10-16T16:22:13.076Z,102276.13
2022-10-16T16:25:19.540Z,102274.81
2022-10-16T16:28:25.821Z,102296.19
2022-10-16T16:31:32.641Z,102306.60
2022-10-16T16:34:41.804Z,102310.00
2022-10-16T16:37:47.095Z,102306.70
2022-10-16T16:40:56.199Z,102318.86
2022-10-16T16:44:00.878Z,102315.41
2022-10-16T16:47:08.720Z,102311.53
2022-10-16T16:50:15.322Z,102311.91
2022-10-16T16:53:19.519Z,102299.64
2022-10-16T16:56:26.560Z,102299.38
2022-10-16T16:59:34.903Z,102301.85
2022-10-16T17:02:40.631Z,102308.59
2022-10-16T17:05:46.591Z,102315.25
2022-10-16T17:08:53.283Z,102311.75
2022-10-16T17:11:58.426Z,102313.00
2022-10-16T17:15:06.172Z,102319.55
2022-10-16T17:18:14.169Z,102318.48
2022-10-16T17:21:20.977Z,102325.51
2022-10-16T17:24:27.445Z,102329.48
2022-10-16T17:27:34.399Z,102322.20
2022-10-16T17:30:41.963Z,102317.12
2022-10-16T17:33:47.866Z,102325.36
2022-10-16T17:36:54.980Z,102319.50
2022-10-16T17:40:00.372Z,102306.40
2022-10-16T17:43:07.643Z,102303.70
2022-10-16T17:46:13.013Z,102302.62
2022-10-16T17:49:19.740Z,102300.13
2022-10-16T17:52:26.864Z,102300.94
2022-10-16T17:55:34.026Z,102295.44
2022-10-16T17:58:41.967Z,102297.80
2022-10-16T18:01:53.227Z,102304.14
2022-10-16T18:05:01.244Z,102313.20
2022-10-16T18:08:08.344Z,102311.65
2022-10-16T18:11:15.759Z,102315.19
2022-10-16T18:14:22.613Z,102324.52
2022-10-16T18:17:30.938Z,102327.64
2022-10-16T18:20:39.264Z,102329.31
2022-10-16T18:23:52.033Z,102330.41
2022-10-16T18:26:57.142Z,102336.93
2022-10-16T18:30:05.236Z,102339.16
2022-10-16T18:33:12.452Z,102345.37
2022-10-16T18:36:21.510Z,102347.24
2022-10-16T18:39:30.172Z,102354.33
2022-10-16T18:42:36.325Z,102364.42
2022-10-16T18:45:43.163Z,102371.06
2022-10-16T18:48:50.778Z,102365.92
2022-10-16T18:51:59.814Z,102368.05
2022-10-16T18:55:07.415Z,102371.73
2022-10-16T18:58:14.619Z,102380.84
2022-10-16T19:01:23.226Z,102389.00
2022-10-16T19:04:32.749Z,102393.86
2022-10-16T19:07:38.552Z,102400.05
2022-10-16T19:10:45.205Z,102398.69
2022-10-16T19:13:51.335Z,102398.98
2022-10-16T19:16:59.206Z,102394.50
2022-10-16T19:20:06.168Z,102385.38
2022-10-16T19:23:13.930Z,102381.95
2022-10-16T19:26:24.459Z,102379.25
2022-10-16T19:29:30.820Z,102380.31
2022-10-16T19:32:37.000Z,102375.17
2022-10-16T19:35:44.490Z,102371.48
2022-10-16T19:38:50.780Z,102372.61
2022-10-16T19:41:56.924Z,102382.30
2022-10-16T19:45:06.842Z,102379.77
2022-10-16T19:48:15.148Z,102386.94
2022-10-16T19:51:22.035Z,102394.75
2022-10-16T19:54:29.344Z,102400.98
2022-10-16T20:00:44.136Z,102393.91
2022-10-16T20:03:49.501Z,102396.86
2022-10-16T20:06:56.722Z,102386.19
2022-10-16T20:10:02.077Z,102381.13
2022-10-16T20:13:08.119Z,102376.36
2022-10-16T20:16:14.187Z,102372.48
2022-10-16T20:19:23.428Z,102362.28
2022-10-16T20:22:29.531Z,102356.95
2022-10-16T20:25:37.481Z,102355.95
2022-10-16T20:28:43.553Z,102364.28
2022-10-16T20:31:54.216Z,102365.63
2022-10-16T20:35:02.073Z,102357.88
2022-10-16T20:38:09.306Z,102372.05
2022-10-16T20:41:19.374Z,102370.92
2022-10-16T20:44:26.773Z,102384.21
2022-10-16T20:47:31.825Z,102380.23
2022-10-16T20:50:40.617Z,102376.26
2022-10-16T20:53:46.320Z,102380.09
2022-10-16T20:56:53.354Z,102372.50
2022-10-16T21:00:03.029Z,102377.97
2022-10-16T21:03:09.310Z,102373.88
2022-10-16T21:06:19.589Z,102390.19
2022-10-16T21:09:29.724Z,102384.64
2022-10-16T21:12:35.186Z,102392.45
2022-10-16T21:15:41.116Z,102394.31
2022-10-16T21:18:50.395Z,102395.66
2022-10-16T21:21:56.512Z,102393.05
2022-10-16T21:25:02.741Z,102392.80
2022-10-16T21:28:08.817Z,102394.89
2022-10-16T21:31:17.977Z,102400.95
2022-10-16T21:34:22.778Z,102412.48
2022-10-16T21:37:28.271Z,102411.67
2022-10-16T21:40:34.367Z,102415.50
2022-10-16T21:43:40.051Z,102418.08
2022-10-16T21:46:46.601Z,102417.45
2022-10-16T21:49:52.861Z,102423.93
2022-10-16T21:52:59.774Z,102429.02
2022-10-16T21:56:07.184Z,102421.23
2022-10-16T21:59:15.664Z,102432.15
2022-10-16T22:02:22.218Z,102441.71
2022-10-16T22:05:30.995Z,102443.95
2022-10-16T22:08:36.922Z,102444.50
2022-10-16T22:11:45.742Z,102441.46
2022-10-16T22:14:51.595Z,102437.98
2022-10-16T22:17:58.680Z,102440.70
2022-10-16T22:21:04.728Z,102446.41
2022-10-16T22:24:13.888Z,102443.45
2022-10-16T22:27:22.876Z,102442.34
2022-10-16T22:30:29.506Z,102448.70
2022-10-16T22:33:35.794Z,102450.05
2022-10-16T22:36:42.272Z,102445.14
2022-10-16T22:39:50.420Z,102444.80
2022-10-16T22:42:55.465Z,102453.98
2022-10-16T22:46:03.466Z,102457.58
2022-10-16T22:49:11.113Z,102461.06
2022-10-16T22:52:16.355Z,102466.09
2022-10-16T22:55:23.563Z,102471.84
2022-10-16T22:58:29.701Z,102468.72
2022-10-16T23:01:43.818Z,102471.59
2022-10-16T23:04:49.234Z,102473.19
2022-10-16T23:07:57.089Z,102473.44
2022-10-16T23:11:07.352Z,102478.84
2022-10-16T23:14:13.519Z,102481.41
2022-10-16T23:17:21.230Z,102477.83
2022-10-16T23:20:28.050Z,102480.44
2022-10-16T23:23:34.811Z,102472.95
2022-10-16T23:26:42.193Z,102474.38
2022-10-16T23:29:48.444Z,102467.70
2022-10-16T23:32:56.285Z,102463.33
2022-10-16T23:36:03.804Z,102459.73
2022-10-16T23:39:11.108Z,102466.03
2022-10-16T23:42:17.849Z,102459.49
2022-10-16T23:45:23.513Z,102452.98
2022-10-16T23:48:30.071Z,102465.94
2022-10-16T23:51:37.206Z,102468.02
2022-10-16T23:54:43.318Z,102463.41
2022-10-16T23:57:49.676Z,102462.20
